createdAt,value
2023-04-10T00:00:03.375Z,608.00
2023-04-10T00:01:03.220Z,608.00
2023-04-10T00:02:03.253Z,606.00
2023-04-10T00:03:03.479Z,609.00
2023-04-10T00:04:03.367Z,607.00
2023-04-10T00:05:03.230Z,611.00
2023-04-10T00:06:03.241Z,609.00
2023-04-10T00:07:03.240Z,607.00
2023-04-10T00:08:03.233Z,604.00
2023-04-10T00:09:03.394Z,606.00
2023-04-10T00:10:03.247Z,610.00
2023-04-10T00:11:03.277Z,610.00
2023-04-10T00:12:03.272Z,606.00
2023-04-10T00:13:03.290Z,604.00
2023-04-10T00:14:03.268Z,608.00
2023-04-10T00:15:03.275Z,610.00
2023-04-10T00:16:03.445Z,607.00
2023-04-10T00:17:03.328Z,605.00
2023-04-10T00:18:03.362Z,606.00
2023-04-10T00:19:03.976Z,608.00
2023-04-10T00:20:03.320Z,617.00
2023-04-10T00:21:03.401Z,613.00
2023-04-10T00:22:03.326Z,612.00
2023-04-10T00:23:03.477Z,611.00
2023-04-10T00:24:03.381Z,603.00
2023-04-10T00:25:03.371Z,610.00
2023-04-10T00:26:03.364Z,611.00
2023-04-10T00:27:03.386Z,609.00
2023-04-10T00:28:03.471Z,609.00
2023-04-10T00:29:03.465Z,606.00
2023-04-10T00:30:03.496Z,610.00
2023-04-10T00:31:03.548Z,609.00
2023-04-10T00:32:03.497Z,603.00
2023-04-10T00:33:03.538Z,606.00
2023-04-10T00:34:03.457Z,603.00
2023-04-10T00:35:03.490Z,606.00
2023-04-10T00:36:03.538Z,611.00
2023-04-10T00:37:04.847Z,604.00
2023-04-10T00:38:03.528Z,610.00
2023-04-10T00:39:03.510Z,607.00
2023-04-10T00:40:03.509Z,600.00
2023-04-10T00:41:03.570Z,612.00
2023-04-10T00:42:03.607Z,616.00
2023-04-10T00:43:03.647Z,604.00
2023-04-10T00:44:03.591Z,600.00
2023-04-10T00:45:03.620Z,613.00
2023-04-10T00:46:03.747Z,610.00
2023-04-10T00:47:03.595Z,606.00
2023-04-10T00:48:03.793Z,613.00
2023-04-10T00:49:03.696Z,610.00
2023-04-10T00:50:03.637Z,606.00
2023-04-10T00:51:03.661Z,601.00
2023-04-10T00:52:03.674Z,609.00
2023-04-10T00:53:03.702Z,607.00
2023-04-10T00:54:03.671Z,608.00
2023-04-10T00:55:03.749Z,614.00
2023-04-10T00:56:03.723Z,605.00
2023-04-10T00:57:03.720Z,608.00
2023-04-10T00:58:03.715Z,608.00
2023-04-10T00:59:05.766Z,614.00
2023-04-10T01:00:03.722Z,607.00
2023-04-10T01:01:03.724Z,610.00
2023-04-10T01:02:03.911Z,607.00
2023-04-10T01:03:03.837Z,615.00
2023-04-10T01:04:03.833Z,611.00
2023-04-10T01:05:03.662Z,602.00
2023-04-10T01:06:03.734Z,607.00
2023-04-10T01:07:03.662Z,606.00
2023-04-10T01:08:03.686Z,610.00
2023-04-10T01:09:03.673Z,614.00
2023-04-10T01:10:03.695Z,605.00
2023-04-10T01:11:03.661Z,606.00
2023-04-10T01:12:03.680Z,607.00
2023-04-10T01:13:03.658Z,602.00
2023-04-10T01:14:03.635Z,604.00
2023-04-10T01:15:03.603Z,610.00
2023-04-10T01:16:03.681Z,607.00
2023-04-10T01:17:03.711Z,606.00
2023-04-10T01:18:03.632Z,609.00
2023-04-10T01:19:03.575Z,596.00
2023-04-10T01:20:03.649Z,607.00
2023-04-10T01:21:03.614Z,608.00
2023-04-10T01:22:03.547Z,602.00
2023-04-10T01:23:03.560Z,598.00
2023-04-10T01:24:03.557Z,607.00
2023-04-10T01:25:03.695Z,606.00
2023-04-10T01:26:03.596Z,607.00
2023-04-10T01:27:03.594Z,603.00
2023-04-10T01:28:03.525Z,604.00
2023-04-10T01:29:03.559Z,608.00
2023-04-10T01:30:03.493Z,605.00
2023-04-10T01:31:03.654Z,599.00
2023-04-10T01:32:03.483Z,610.00
2023-04-10T01:33:03.517Z,605.00
2023-04-10T01:34:03.549Z,606.00
2023-04-10T01:35:03.533Z,601.00
2023-04-10T01:36:03.517Z,611.00
2023-04-10T01:37:03.495Z,603.00
2023-04-10T01:38:03.460Z,610.00
2023-04-10T01:39:03.501Z,600.00
2023-04-10T01:40:03.468Z,601.00
2023-04-10T01:41:03.466Z,603.00
2023-04-10T01:42:03.443Z,606.00
2023-04-10T01:43:03.521Z,602.00
2023-04-10T01:44:03.474Z,605.00
2023-04-10T01:45:03.403Z,601.00
2023-04-10T01:46:03.465Z,600.00
2023-04-10T01:47:03.382Z,602.00
2023-04-10T01:48:03.389Z,601.00
2023-04-10T01:49:03.389Z,605.00
2023-04-10T01:50:03.434Z,603.00
2023-04-10T01:51:03.423Z,600.00
2023-04-10T01:52:03.435Z,606.00
2023-04-10T01:53:03.325Z,602.00
2023-04-10T01:54:04.581Z,605.00
2023-04-10T01:55:03.337Z,610.00
2023-04-10T01:56:03.408Z,603.00
2023-04-10T01:57:03.367Z,596.00
2023-04-10T01:58:03.375Z,600.00
2023-04-10T01:59:03.442Z,604.00
2023-04-10T02:00:03.478Z,601.00
2023-04-10T02:01:03.542Z,602.00
2023-04-10T02:02:03.427Z,597.00
2023-04-10T02:03:03.608Z,598.00
2023-04-10T02:04:03.475Z,602.00
2023-04-10T02:05:03.474Z,604.00
2023-04-10T02:06:03.434Z,594.00
2023-04-10T02:07:03.451Z,604.00
2023-04-10T02:08:03.474Z,603.00
2023-04-10T02:09:03.540Z,598.00
2023-04-10T02:10:03.526Z,607.00
2023-04-10T02:11:03.566Z,602.00
2023-04-10T02:12:03.578Z,601.00
2023-04-10T02:13:03.529Z,601.00
2023-04-10T02:14:03.579Z,602.00
2023-04-10T02:15:03.532Z,602.00
2023-04-10T02:16:04.349Z,603.00
2023-04-10T02:17:03.603Z,600.00
2023-04-10T02:18:03.570Z,598.00
2023-04-10T02:19:03.667Z,598.00
2023-04-10T02:20:03.677Z,598.00
2023-04-10T02:21:03.636Z,603.00
2023-04-10T02:22:03.665Z,601.00
2023-04-10T02:23:03.918Z,599.00
2023-04-10T02:24:04.472Z,599.00
2023-04-10T02:25:04.550Z,593.00
2023-04-10T02:26:03.684Z,594.00
2023-04-10T02:27:03.670Z,601.00
2023-04-10T02:28:03.805Z,605.00
2023-04-10T02:29:03.705Z,596.00
2023-04-10T02:30:04.507Z,604.00
2023-04-10T02:31:03.848Z,598.00
2023-04-10T02:32:03.772Z,604.00
2023-04-10T02:33:03.816Z,604.00
2023-04-10T02:34:03.798Z,595.00
2023-04-10T02:35:03.839Z,600.00
2023-04-10T02:36:03.810Z,603.00
2023-04-10T02:37:03.853Z,594.00
2023-04-10T02:38:03.821Z,596.00
2023-04-10T02:39:04.504Z,605.00
2023-04-10T02:40:03.806Z,596.00
2023-04-10T02:41:03.871Z,599.00
2023-04-10T02:42:03.842Z,598.00
2023-04-10T02:43:03.859Z,598.00
2023-04-10T02:44:03.889Z,597.00
2023-04-10T02:45:03.933Z,598.00
2023-04-10T02:46:03.892Z,603.00
2023-04-10T02:47:03.937Z,593.00
2023-04-10T02:48:04.562Z,601.00
2023-04-10T02:49:03.912Z,602.00
2023-04-10T02:50:03.989Z,602.00
2023-04-10T02:51:03.938Z,598.00
2023-04-10T02:52:03.924Z,597.00
2023-04-10T02:53:03.983Z,594.00
2023-04-10T02:54:03.919Z,599.00
2023-04-10T02:55:03.941Z,595.00
2023-04-10T02:56:03.978Z,598.00
2023-04-10T02:57:03.959Z,593.00
2023-04-10T02:58:04.049Z,594.00
2023-04-10T02:59:04.084Z,598.00
2023-04-10T03:00:03.993Z,598.00
2023-04-10T03:01:03.995Z,590.00
2023-04-10T03:02:04.113Z,597.00
2023-04-10T03:03:04.158Z,598.00
2023-04-10T03:04:04.202Z,598.00
2023-04-10T03:05:04.024Z,596.00
2023-04-10T03:06:05.637Z,595.00
2023-04-10T03:07:04.082Z,606.00
2023-04-10T03:08:04.001Z,602.00
2023-04-10T03:09:04.042Z,600.00
2023-04-10T03:10:04.571Z,595.00
2023-04-10T03:11:04.013Z,594.00
2023-04-10T03:12:04.499Z,598.00
2023-04-10T03:13:04.015Z,601.00
2023-04-10T03:14:04.003Z,596.00
2023-04-10T03:15:03.976Z,591.00
2023-04-10T03:16:04.075Z,595.00
2023-04-10T03:17:04.126Z,596.00
2023-04-10T03:18:04.074Z,591.00
2023-04-10T03:19:03.946Z,591.00
2023-04-10T03:20:04.060Z,593.00
2023-04-10T03:21:03.940Z,597.00
2023-04-10T03:22:04.042Z,601.00
2023-04-10T03:23:03.951Z,596.00
2023-04-10T03:24:03.964Z,601.00
2023-04-10T03:25:04.031Z,597.00
2023-04-10T03:26:04.021Z,598.00
2023-04-10T03:27:03.909Z,595.00
2023-04-10T03:28:03.905Z,595.00
2023-04-10T03:29:03.906Z,595.00
2023-04-10T03:30:03.897Z,596.00
2023-04-10T03:31:03.972Z,597.00
2023-04-10T03:32:03.900Z,596.00
2023-04-10T03:33:04.572Z,591.00
2023-04-10T03:34:03.863Z,597.00
2023-04-10T03:35:03.848Z,598.00
2023-04-10T03:36:03.939Z,596.00
2023-04-10T03:37:03.816Z,600.00
2023-04-10T03:38:03.818Z,598.00
2023-04-10T03:39:03.885Z,597.00
2023-04-10T03:40:03.795Z,598.00
2023-04-10T03:41:03.841Z,595.00
2023-04-10T03:42:04.499Z,594.00
2023-04-10T03:43:03.826Z,596.00
2023-04-10T03:44:03.804Z,597.00
2023-04-10T03:45:03.787Z,600.00
2023-04-10T03:46:03.889Z,592.00
2023-04-10T03:47:03.908Z,594.00
2023-04-10T03:48:03.854Z,598.00
2023-04-10T03:49:03.773Z,599.00
2023-04-10T03:50:03.795Z,590.00
2023-04-10T03:51:03.725Z,592.00
2023-04-10T03:52:03.772Z,600.00
2023-04-10T03:53:03.763Z,600.00
2023-04-10T03:54:03.785Z,605.00
2023-04-10T03:55:03.683Z,595.00
2023-04-10T03:56:03.785Z,592.00
2023-04-10T03:57:04.129Z,599.00
2023-04-10T03:58:03.696Z,600.00
2023-04-10T03:59:03.674Z,596.00
2023-04-10T04:00:03.645Z,596.00
2023-04-10T04:01:03.816Z,600.00
2023-04-10T04:02:03.779Z,593.00
2023-04-10T04:03:03.830Z,596.00
2023-04-10T04:04:03.942Z,596.00
2023-04-10T04:05:03.685Z,596.00
2023-04-10T04:06:03.715Z,592.00
2023-04-10T04:07:03.724Z,591.00
2023-04-10T04:08:03.594Z,596.00
2023-04-10T04:09:03.616Z,598.00
2023-04-10T04:10:03.703Z,596.00
2023-04-10T04:11:03.611Z,594.00
2023-04-10T04:12:03.561Z,589.00
2023-04-10T04:13:03.907Z,603.00
2023-04-10T04:14:03.534Z,595.00
2023-04-10T04:15:03.634Z,591.00
2023-04-10T04:16:03.623Z,591.00
2023-04-10T04:17:04.601Z,600.00
2023-04-10T04:18:03.838Z,597.00
2023-04-10T04:19:03.634Z,594.00
2023-04-10T04:20:03.506Z,593.00
2023-04-10T04:21:03.549Z,595.00
2023-04-10T04:22:03.613Z,591.00
2023-04-10T04:23:03.517Z,591.00
2023-04-10T04:24:03.540Z,591.00
2023-04-10T04:25:03.508Z,595.00
2023-04-10T04:26:04.026Z,591.00
2023-04-10T04:27:03.486Z,596.00
2023-04-10T04:28:03.463Z,596.00
2023-04-10T04:29:03.417Z,591.00
2023-04-10T04:30:03.482Z,588.00
2023-04-10T04:31:03.457Z,592.00
2023-04-10T04:32:03.489Z,592.00
2023-04-10T04:33:04.160Z,595.00
2023-04-10T04:34:03.434Z,594.00
2023-04-10T04:35:03.428Z,590.00
2023-04-10T04:36:03.468Z,597.00
2023-04-10T04:37:03.442Z,596.00
2023-04-10T04:38:03.512Z,594.00
2023-04-10T04:39:03.418Z,597.00
2023-04-10T04:40:03.446Z,595.00
2023-04-10T04:41:03.411Z,592.00
2023-04-10T04:42:03.374Z,590.00
2023-04-10T04:43:03.474Z,595.00
2023-04-10T04:44:03.411Z,593.00
2023-04-10T04:45:03.390Z,597.00
2023-04-10T04:46:03.403Z,585.00
2023-04-10T04:47:03.359Z,593.00
2023-04-10T04:48:03.488Z,593.00
2023-04-10T04:49:03.379Z,593.00
2023-04-10T04:50:03.319Z,592.00
2023-04-10T04:51:03.342Z,590.00
2023-04-10T04:52:03.327Z,586.00
2023-04-10T04:53:04.929Z,591.00
2023-04-10T04:54:03.301Z,599.00
2023-04-10T04:55:03.329Z,593.00
2023-04-10T04:56:03.381Z,596.00
2023-04-10T04:57:03.299Z,596.00
2023-04-10T04:58:03.322Z,590.00
2023-04-10T04:59:03.287Z,592.00
2023-04-10T05:00:03.249Z,586.00
2023-04-10T05:01:03.343Z,591.00
2023-04-10T05:02:03.303Z,591.00
2023-04-10T05:03:03.394Z,592.00
2023-04-10T05:04:03.311Z,589.00
2023-04-10T05:05:03.234Z,592.00
2023-04-10T05:06:03.209Z,591.00
2023-04-10T05:07:03.173Z,591.00
2023-04-10T05:08:03.244Z,594.00
2023-04-10T05:09:03.173Z,592.00
2023-04-10T05:10:03.174Z,593.00
2023-04-10T05:11:03.181Z,592.00
2023-04-10T05:12:03.159Z,593.00
2023-04-10T05:13:03.226Z,589.00
2023-04-10T05:14:03.165Z,589.00
2023-04-10T05:15:03.125Z,590.00
2023-04-10T05:16:03.155Z,583.00
2023-04-10T05:17:03.887Z,592.00
2023-04-10T05:18:03.172Z,590.00
2023-04-10T05:19:03.127Z,589.00
2023-04-10T05:20:03.191Z,587.00
2023-04-10T05:21:03.127Z,586.00
2023-04-10T05:22:03.105Z,588.00
2023-04-10T05:23:03.085Z,587.00
2023-04-10T05:24:03.069Z,589.00
2023-04-10T05:25:03.039Z,592.00
2023-04-10T05:26:03.174Z,591.00
2023-04-10T05:27:03.074Z,590.00
2023-04-10T05:28:03.132Z,591.00
2023-04-10T05:29:03.006Z,587.00
2023-04-10T05:30:03.078Z,588.00
2023-04-10T05:31:03.104Z,588.00
2023-04-10T05:32:03.024Z,595.00
2023-04-10T05:33:03.256Z,592.00
2023-04-10T05:34:03.578Z,586.00
2023-04-10T05:35:03.003Z,590.00
2023-04-10T05:36:03.114Z,587.00
2023-04-10T05:37:03.035Z,590.00
2023-04-10T05:38:02.985Z,588.00
2023-04-10T05:39:02.967Z,591.00
2023-04-10T05:40:02.971Z,587.00
2023-04-10T05:41:02.994Z,589.00
2023-04-10T05:42:02.993Z,589.00
2023-04-10T05:43:02.925Z,586.00
2023-04-10T05:44:02.940Z,594.00
2023-04-10T05:45:02.915Z,587.00
2023-04-10T05:46:03.057Z,591.00
2023-04-10T05:47:02.921Z,589.00
2023-04-10T05:48:02.975Z,587.00
2023-04-10T05:49:02.878Z,594.00
2023-04-10T05:50:03.028Z,592.00
2023-04-10T05:51:02.875Z,591.00
2023-04-10T05:52:02.901Z,597.00
2023-04-10T05:53:02.901Z,589.00
2023-04-10T05:54:02.983Z,590.00
2023-04-10T05:55:03.618Z,582.00
2023-04-10T05:56:04.065Z,589.00
2023-04-10T05:57:03.176Z,588.00
2023-04-10T05:58:03.195Z,586.00
2023-04-10T05:59:03.338Z,598.00
2023-04-10T06:00:03.399Z,592.00
2023-04-10T06:01:03.455Z,582.00
2023-04-10T06:02:03.493Z,583.00
2023-04-10T06:03:03.712Z,591.00
2023-04-10T06:04:03.775Z,593.00
2023-04-10T06:05:03.697Z,593.00
2023-04-10T06:06:03.702Z,587.00
2023-04-10T06:07:03.773Z,591.00
2023-04-10T06:08:03.841Z,589.00
2023-04-10T06:09:03.930Z,590.00
2023-04-10T06:10:03.996Z,582.00
2023-04-10T06:11:04.005Z,588.00
2023-04-10T06:12:04.081Z,584.00
2023-04-10T06:13:04.119Z,592.00
2023-04-10T06:14:04.204Z,587.00
2023-04-10T06:15:04.273Z,593.00
2023-04-10T06:16:04.383Z,587.00
2023-04-10T06:17:04.465Z,588.00
2023-04-10T06:18:04.538Z,587.00
2023-04-10T06:19:04.516Z,583.00
2023-04-10T06:20:04.596Z,585.00
2023-04-10T06:21:04.672Z,591.00
2023-04-10T06:22:04.913Z,595.00
2023-04-10T06:23:04.797Z,586.00
2023-04-10T06:24:04.803Z,590.00
2023-04-10T06:25:04.864Z,579.00
2023-04-10T06:26:04.925Z,591.00
2023-04-10T06:27:04.984Z,589.00
2023-04-10T06:28:05.049Z,592.00
2023-04-10T06:29:05.205Z,592.00
2023-04-10T06:30:05.126Z,593.00
2023-04-10T06:31:05.204Z,595.00
2023-04-10T06:32:05.244Z,585.00
2023-04-10T06:33:05.349Z,587.00
2023-04-10T06:34:05.351Z,588.00
2023-04-10T06:35:05.428Z,579.00
2023-04-10T06:36:05.567Z,579.00
2023-04-10T06:37:05.561Z,588.00
2023-04-10T06:38:06.767Z,578.00
2023-04-10T06:39:05.634Z,583.00
2023-04-10T06:40:05.715Z,589.00
2023-04-10T06:41:05.797Z,585.00
2023-04-10T06:42:05.806Z,579.00
2023-04-10T06:43:05.822Z,577.00
2023-04-10T06:44:05.887Z,597.00
2023-04-10T06:45:05.969Z,587.00
2023-04-10T06:46:06.006Z,580.00
2023-04-10T06:47:06.228Z,585.00
2023-04-10T06:48:06.158Z,583.00
2023-04-10T06:49:06.144Z,585.00
2023-04-10T06:50:06.195Z,582.00
2023-04-10T06:51:06.266Z,585.00
2023-04-10T06:52:06.344Z,590.00
2023-04-10T06:53:07.145Z,583.00
2023-04-10T06:54:06.386Z,586.00
2023-04-10T06:55:06.446Z,582.00
2023-04-10T06:56:06.608Z,589.00
2023-04-10T06:57:06.567Z,576.00
2023-04-10T06:58:06.618Z,587.00
2023-04-10T06:59:07.610Z,584.00
2023-04-10T07:00:06.705Z,583.00
2023-04-10T07:01:06.792Z,592.00
2023-04-10T07:02:06.826Z,583.00
2023-04-10T07:03:06.858Z,582.00
2023-04-10T07:04:06.917Z,585.00
2023-04-10T07:05:07.209Z,582.00
2023-04-10T07:06:06.984Z,583.00
2023-04-10T07:07:06.993Z,581.00
2023-04-10T07:08:07.051Z,579.00
2023-04-10T07:09:07.138Z,579.00
2023-04-10T07:10:07.259Z,588.00
2023-04-10T07:11:07.233Z,577.00
2023-04-10T07:12:07.296Z,577.00
2023-04-10T07:13:07.258Z,585.00
2023-04-10T07:14:07.329Z,579.00
2023-04-10T07:15:07.346Z,583.00
2023-04-10T07:16:07.457Z,584.00
2023-04-10T07:17:07.441Z,584.00
2023-04-10T07:18:07.500Z,587.00
2023-04-10T07:19:07.522Z,579.00
2023-04-10T07:20:07.548Z,577.00
2023-04-10T07:21:07.564Z,581.00
2023-04-10T07:22:07.621Z,580.00
2023-04-10T07:23:07.654Z,580.00
2023-04-10T07:24:07.687Z,579.00
2023-04-10T07:25:07.722Z,577.00
2023-04-10T07:26:07.764Z,585.00
2023-04-10T07:27:07.826Z,587.00
2023-04-10T07:28:07.814Z,583.00
2023-04-10T07:29:07.832Z,579.00
2023-04-10T07:30:07.882Z,581.00
2023-04-10T07:31:07.909Z,586.00
2023-04-10T07:32:08.042Z,587.00
2023-04-10T07:33:08.135Z,583.00
2023-04-10T07:34:08.068Z,581.00
2023-04-10T07:35:07.975Z,582.00
2023-04-10T07:36:08.065Z,585.00
2023-04-10T07:37:08.633Z,583.00
2023-04-10T07:38:08.090Z,583.00
2023-04-10T07:39:08.156Z,582.00
2023-04-10T07:40:09.207Z,580.00
2023-04-10T07:41:08.206Z,585.00
2023-04-10T07:42:08.256Z,586.00
2023-04-10T07:43:08.345Z,582.00
2023-04-10T07:44:08.305Z,586.00
2023-04-10T07:45:08.373Z,583.00
2023-04-10T07:46:08.405Z,581.00
2023-04-10T07:47:08.612Z,587.00
2023-04-10T07:48:08.472Z,587.00
2023-04-10T07:49:08.914Z,580.00
2023-04-10T07:50:08.428Z,587.00
2023-04-10T07:51:08.486Z,579.00
2023-04-10T07:52:08.507Z,583.00
2023-04-10T07:53:08.584Z,585.00
2023-04-10T07:54:08.550Z,585.00
2023-04-10T07:55:08.570Z,584.00
2023-04-10T07:56:08.589Z,587.00
2023-04-10T07:57:08.656Z,585.00
2023-04-10T07:58:08.619Z,586.00
2023-04-10T07:59:08.685Z,583.00
2023-04-10T08:00:08.671Z,586.00
2023-04-10T08:01:08.706Z,590.00
2023-04-10T08:02:09.299Z,580.00
2023-04-10T08:03:08.964Z,581.00
2023-04-10T08:04:08.822Z,581.00
2023-04-10T08:05:08.755Z,587.00
2023-04-10T08:06:08.746Z,580.00
2023-04-10T08:07:08.850Z,586.00
2023-04-10T08:08:08.794Z,581.00
2023-04-10T08:09:08.826Z,579.00
2023-04-10T08:10:08.835Z,577.00
2023-04-10T08:11:08.858Z,582.00
2023-04-10T08:12:08.883Z,585.00
2023-04-10T08:13:08.896Z,580.00
2023-04-10T08:14:08.962Z,586.00
2023-04-10T08:15:08.938Z,591.00
2023-04-10T08:16:08.953Z,587.00
2023-04-10T08:17:09.057Z,580.00
2023-04-10T08:18:08.988Z,580.00
2023-04-10T08:19:09.006Z,582.00
2023-04-10T08:20:09.082Z,582.00
2023-04-10T08:21:09.255Z,587.00
2023-04-10T08:24:10.588Z,500.00
2023-04-10T08:25:10.653Z,500.00
2023-04-10T08:26:10.568Z,500.00
2023-04-10T08:27:11.560Z,500.00
2023-04-10T08:28:10.492Z,500.00
2023-04-10T08:29:11.454Z,501.00
2023-04-10T08:30:12.442Z,501.00
2023-04-10T08:31:10.618Z,505.00
2023-04-10T08:32:10.549Z,503.00
2023-04-10T08:33:10.880Z,506.00
2023-04-10T08:34:10.605Z,503.00
2023-04-10T08:35:10.497Z,504.00
2023-04-10T08:36:10.483Z,504.00
2023-04-10T08:37:11.796Z,506.00
2023-04-10T08:38:14.007Z,504.00
2023-04-10T08:39:10.435Z,505.00
2023-04-10T08:40:10.468Z,505.00
2023-04-10T08:41:10.440Z,506.00
2023-04-10T08:42:10.390Z,504.00
2023-04-10T08:43:10.415Z,508.00
2023-04-10T08:44:10.390Z,506.00
2023-04-10T08:45:10.386Z,508.00
2023-04-10T08:46:11.407Z,507.00
2023-04-10T08:47:10.410Z,509.00
2023-04-10T08:48:10.389Z,512.00
2023-04-10T08:49:10.395Z,511.00
2023-04-10T08:50:10.360Z,513.00
2023-04-10T08:51:15.504Z,510.00
2023-04-10T08:52:11.312Z,511.00
2023-04-10T08:53:10.368Z,511.00
2023-04-10T08:54:10.325Z,511.00
2023-04-10T08:55:10.292Z,512.00
2023-04-10T08:56:10.381Z,513.00
2023-04-10T08:57:11.147Z,511.00
2023-04-10T08:58:10.288Z,513.00
2023-04-10T08:59:10.346Z,507.00
2023-04-10T09:01:11.287Z,513.00
2023-04-10T09:02:10.404Z,513.00
2023-04-10T09:03:10.500Z,515.00
2023-04-10T09:04:10.366Z,509.00
2023-04-10T09:05:10.267Z,516.00
2023-04-10T09:06:10.248Z,510.00
2023-04-10T09:07:10.276Z,510.00
2023-04-10T09:08:10.230Z,505.00
2023-04-10T09:09:10.251Z,516.00
2023-04-10T09:10:10.382Z,513.00
2023-04-10T09:11:11.387Z,514.00
2023-04-10T09:12:10.577Z,519.00
2023-04-10T09:13:11.368Z,513.00
2023-04-10T09:14:10.572Z,514.00
2023-04-10T09:15:10.601Z,515.00
2023-04-10T09:16:10.715Z,513.00
2023-04-10T09:17:10.744Z,517.00
2023-04-10T09:18:10.941Z,518.00
2023-04-10T09:19:10.889Z,514.00
2023-04-10T09:20:10.951Z,521.00
2023-04-10T09:21:10.980Z,523.00
2023-04-10T09:22:11.356Z,513.00
2023-04-10T09:23:11.892Z,518.00
2023-04-10T09:24:11.134Z,519.00
2023-04-10T09:25:11.271Z,520.00
2023-04-10T09:26:11.251Z,512.00
2023-04-10T09:27:11.304Z,520.00
2023-04-10T09:28:11.355Z,520.00
2023-04-10T09:29:11.478Z,515.00
2023-04-10T09:30:11.487Z,515.00
2023-04-10T09:31:12.406Z,519.00
2023-04-10T09:32:11.590Z,520.00
2023-04-10T09:33:11.647Z,517.00
2023-04-10T09:34:11.678Z,521.00
2023-04-10T09:35:11.798Z,519.00
2023-04-10T09:36:11.801Z,517.00
2023-04-10T09:37:11.840Z,517.00
2023-04-10T09:38:11.838Z,519.00
2023-04-10T09:39:12.046Z,519.00
2023-04-10T09:40:11.957Z,517.00
2023-04-10T09:41:12.020Z,519.00
2023-04-10T09:42:12.077Z,516.00
2023-04-10T09:43:12.814Z,521.00
2023-04-10T09:44:12.112Z,518.00
2023-04-10T09:45:12.192Z,519.00
2023-04-10T09:46:12.277Z,512.00
2023-04-10T09:47:12.281Z,515.00
2023-04-10T09:48:12.336Z,520.00
2023-04-10T09:49:12.419Z,520.00
2023-04-10T09:50:12.389Z,521.00
2023-04-10T09:51:12.447Z,523.00
2023-04-10T09:52:12.459Z,516.00
2023-04-10T09:53:12.492Z,522.00
2023-04-10T09:54:12.557Z,525.00
2023-04-10T09:55:12.632Z,526.00
2023-04-10T09:56:12.595Z,523.00
2023-04-10T09:57:12.672Z,526.00
2023-04-10T09:58:12.703Z,519.00
2023-04-10T09:59:12.704Z,521.00
2023-04-10T10:00:15.369Z,527.00
2023-04-10T10:01:12.726Z,526.00
2023-04-10T10:02:12.787Z,527.00
2023-04-10T10:03:13.042Z,519.00
2023-04-10T10:04:12.725Z,525.00
2023-04-10T10:05:12.759Z,522.00
2023-04-10T10:06:12.668Z,528.00
2023-04-10T10:07:12.695Z,519.00
2023-04-10T10:08:12.727Z,522.00
2023-04-10T10:09:13.411Z,519.00
2023-04-10T10:10:12.656Z,525.00
2023-04-10T10:11:12.655Z,523.00
2023-04-10T10:12:13.411Z,526.00
2023-04-10T10:13:13.364Z,523.00
2023-04-10T10:14:12.622Z,525.00
2023-04-10T10:15:12.648Z,526.00
2023-04-10T10:16:12.631Z,527.00
2023-04-10T10:17:12.630Z,520.00
2023-04-10T10:18:12.603Z,522.00
2023-04-10T10:19:12.626Z,527.00
2023-04-10T10:20:12.588Z,516.00
2023-04-10T10:21:12.616Z,516.00
2023-04-10T10:22:12.592Z,520.00
2023-04-10T10:23:12.592Z,517.00
2023-04-10T10:24:12.614Z,518.00
2023-04-10T10:25:12.578Z,523.00
2023-04-10T10:26:12.553Z,519.00
2023-04-10T10:27:12.560Z,525.00
2023-04-10T10:28:12.649Z,525.00
2023-04-10T10:29:12.558Z,525.00
2023-04-10T10:30:25.713Z,522.00
2023-04-10T10:31:13.599Z,522.00
2023-04-10T10:32:12.562Z,523.00
2023-04-10T10:33:12.563Z,525.00
2023-04-10T10:34:12.491Z,523.00
2023-04-10T10:35:12.530Z,518.00
2023-04-10T10:36:12.479Z,519.00
2023-04-10T10:37:12.603Z,523.00
2023-04-10T10:38:12.467Z,521.00
2023-04-10T10:39:12.668Z,521.00
2023-04-10T10:40:12.471Z,520.00
2023-04-10T10:41:12.471Z,520.00
2023-04-10T10:42:12.436Z,518.00
2023-04-10T10:43:12.469Z,521.00
2023-04-10T10:44:12.443Z,520.00
2023-04-10T10:45:12.446Z,521.00
2023-04-10T10:46:12.483Z,519.00
2023-04-10T10:47:12.453Z,516.00
2023-04-10T10:48:12.397Z,522.00
2023-04-10T10:49:12.522Z,519.00
2023-04-10T10:50:12.390Z,520.00
2023-04-10T10:51:12.401Z,519.00
2023-04-10T10:52:12.368Z,519.00
2023-04-10T10:53:12.386Z,521.00
2023-04-10T10:54:12.361Z,521.00
2023-04-10T10:55:12.428Z,517.00
2023-04-10T10:56:12.362Z,514.00
2023-04-10T10:57:12.363Z,518.00
2023-04-10T10:58:12.406Z,517.00
2023-04-10T10:59:12.411Z,516.00
2023-04-10T11:00:12.310Z,514.00
2023-04-10T11:01:12.373Z,515.00
2023-04-10T11:02:12.631Z,513.00
2023-04-10T11:03:12.529Z,514.00
2023-04-10T11:04:12.514Z,519.00
2023-04-10T11:05:12.464Z,517.00
2023-04-10T11:06:12.515Z,514.00
2023-04-10T11:07:12.556Z,509.00
2023-04-10T11:08:12.628Z,520.00
2023-04-10T11:09:12.634Z,518.00
2023-04-10T11:10:12.655Z,508.00
2023-04-10T11:11:12.723Z,513.00
2023-04-10T11:12:12.744Z,511.00
2023-04-10T11:13:12.809Z,510.00
2023-04-10T11:14:12.836Z,512.00
2023-04-10T11:15:12.845Z,513.00
2023-04-10T11:16:12.899Z,510.00
2023-04-10T11:17:12.950Z,511.00
2023-04-10T11:18:12.966Z,508.00
2023-04-10T11:19:15.575Z,506.00
2023-04-10T11:20:13.008Z,508.00
2023-04-10T11:21:13.031Z,509.00
2023-04-10T11:22:13.038Z,502.00
2023-04-10T11:23:13.930Z,507.00
2023-04-10T11:24:12.998Z,509.00
2023-04-10T11:25:12.987Z,505.00
2023-04-10T11:26:12.956Z,505.00
2023-04-10T11:27:14.048Z,505.00
2023-04-10T11:28:12.950Z,506.00
2023-04-10T11:29:13.000Z,505.00
2023-04-10T11:30:12.961Z,504.00
2023-04-10T11:31:13.014Z,507.00
2023-04-10T11:32:13.002Z,508.00
2023-04-10T11:33:12.932Z,504.00
2023-04-10T11:34:14.022Z,503.00
2023-04-10T11:35:12.944Z,505.00
2023-04-10T11:36:12.875Z,507.00
2023-04-10T11:37:12.888Z,509.00
2023-04-10T11:38:12.940Z,502.00
2023-04-10T11:39:12.886Z,504.00
2023-04-10T11:40:12.957Z,516.00
2023-04-10T11:41:12.957Z,508.00
2023-04-10T11:42:12.867Z,501.00
2023-04-10T11:43:12.852Z,510.00
2023-04-10T11:44:12.893Z,513.00
2023-04-10T11:45:12.869Z,510.00
2023-04-10T11:46:13.009Z,507.00
2023-04-10T11:47:13.075Z,502.00
2023-04-10T11:48:13.091Z,501.00
2023-04-10T11:49:13.161Z,503.00
2023-04-10T11:50:13.471Z,512.00
2023-04-10T11:51:13.408Z,503.00
2023-04-10T11:52:13.456Z,505.00
2023-04-10T11:53:13.467Z,506.00
2023-04-10T11:54:13.480Z,502.00
2023-04-10T11:55:14.555Z,502.00
2023-04-10T11:56:13.614Z,506.00
2023-04-10T11:57:13.659Z,506.00
2023-04-10T11:58:13.754Z,510.00
2023-04-10T11:59:13.749Z,507.00
2023-04-10T12:00:13.802Z,504.00
2023-04-10T12:01:14.472Z,505.00
2023-04-10T12:02:13.945Z,506.00
2023-04-10T12:03:14.131Z,503.00
2023-04-10T12:04:14.191Z,513.00
2023-04-10T12:05:14.121Z,508.00
2023-04-10T12:06:14.166Z,511.00
2023-04-10T12:07:14.173Z,503.00
2023-04-10T12:08:14.328Z,504.00
2023-04-10T12:09:14.358Z,506.00
2023-04-10T12:10:14.371Z,500.00
2023-04-10T12:11:14.415Z,504.00
2023-04-10T12:12:14.478Z,508.00
2023-04-10T12:13:15.537Z,508.00
2023-04-10T12:14:14.564Z,504.00
2023-04-10T12:15:14.643Z,500.00
2023-04-10T12:16:14.788Z,507.00
2023-04-10T12:17:14.761Z,512.00
2023-04-10T12:18:14.828Z,509.00
2023-04-10T12:19:14.896Z,505.00
2023-04-10T12:20:14.965Z,509.00
2023-04-10T12:21:15.004Z,508.00
2023-04-10T12:22:15.079Z,510.00
2023-04-10T12:23:15.136Z,511.00
2023-04-10T12:24:15.314Z,503.00
2023-04-10T12:25:15.285Z,505.00
2023-04-10T12:26:15.447Z,507.00
2023-04-10T12:27:15.374Z,508.00
2023-04-10T12:28:15.428Z,504.00
2023-04-10T12:29:15.479Z,504.00
2023-04-10T12:30:15.589Z,511.00
2023-04-10T12:31:15.699Z,504.00